"WATCHING THE WEATHER TO PROTECT LIFE AND PROPERTY"


THERE ARE CURRENTLY NO WATCHES NOR WARNINGS


Aviation
Satellite (InfraRed)


TNCA 222100Z 08019KT 9999 FEW020 31/25 Q1009 NOSIG
TNCB 222055Z 10015KT 070V130 9999 FEW018 32/24 Q1010
TNCC 222100Z 10013KT 9999 FEW020 31/26 Q1010 NOSIG=